createdAt,value
2023-10-09T00:02:10.554Z,1.4
2023-10-09T00:02:55.707Z,1
2023-10-09T00:12:56.985Z,1.2
2023-10-09T00:22:58.400Z,1.8
2023-10-09T00:33:00.013Z,1.8
2023-10-09T00:43:01.061Z,2
2023-10-09T00:53:02.319Z,2.8
2023-10-09T01:03:03.643Z,2.6
2023-10-09T01:13:04.889Z,2.6
2023-10-09T01:23:05.967Z,2.6
2023-10-09T01:33:07.436Z,2.8
2023-10-09T01:43:08.234Z,2.7
2023-10-09T01:53:09.338Z,2.7
2023-10-09T02:03:10.488Z,2.5
2023-10-09T02:13:11.483Z,2.1
2023-10-09T02:23:12.560Z,2
2023-10-09T02:33:13.686Z,2.3
2023-10-09T02:43:14.727Z,1.9
2023-10-09T02:53:15.849Z,1.8
2023-10-09T03:03:17.063Z,1.5
2023-10-09T03:13:18.051Z,1.4
2023-10-09T03:23:19.088Z,1.4
2023-10-09T03:33:20.189Z,1.6
2023-10-09T03:43:21.200Z,1.2
2023-10-09T03:53:22.220Z,1.3
2023-10-09T04:03:23.314Z,1.1
2023-10-09T04:13:24.353Z,1.2
2023-10-09T04:23:25.429Z,1.3
2023-10-09T04:33:26.511Z,1.1
2023-10-09T04:43:27.550Z,0.9
2023-10-09T04:53:28.659Z,1
2023-10-09T05:03:29.850Z,1.3
2023-10-09T05:13:30.910Z,1
2023-10-09T05:23:31.895Z,1
2023-10-09T05:33:32.971Z,0.9
2023-10-09T05:43:33.998Z,1.1
2023-10-09T05:53:35.096Z,1.5
2023-10-09T06:03:36.342Z,1
2023-10-09T06:13:37.349Z,1.3
2023-10-09T06:23:38.552Z,1.1
2023-10-09T06:53:42.159Z,0.9
2023-10-09T07:03:43.414Z,1.1
2023-10-09T07:23:45.701Z,1.3
2023-10-09T07:33:46.938Z,1.2
2023-10-09T07:43:48.080Z,0.8
2023-10-09T08:13:51.704Z,1.2
2023-10-09T08:23:52.626Z,1.2
2023-10-09T08:53:55.995Z,1.2
2023-10-09T09:03:57.143Z,1.3
2023-10-09T09:13:58.131Z,1.3
2023-10-09T09:23:59.151Z,1.3
2023-10-09T09:44:01.202Z,1.2
2023-10-09T09:54:02.233Z,1.7
2023-10-09T10:04:03.138Z,1.5
2023-10-09T10:14:04.126Z,1.5
2023-10-09T10:24:05.075Z,2.4
2023-10-09T10:34:06.032Z,1.8
2023-10-09T10:44:07.100Z,1.6
2023-10-09T10:54:08.158Z,2.1
2023-10-09T11:04:09.499Z,1.6
2023-10-09T11:14:09.944Z,1.7
2023-10-09T11:24:10.756Z,1.5
2023-10-09T11:34:11.720Z,1.5
2023-10-09T11:44:12.731Z,1.5
2023-10-09T11:54:13.715Z,2.4
2023-10-09T12:04:14.777Z,1.5
2023-10-09T12:14:15.647Z,1.5
2023-10-09T12:24:16.637Z,1.8
2023-10-09T12:30:41.088Z,1.8
2023-10-09T12:34:17.601Z,1.9
2023-10-09T12:40:43.571Z,1.9
2023-10-09T12:42:24.970Z,1.9
2023-10-09T12:44:19.696Z,1.7
2023-10-09T12:54:19.648Z,1.8
2023-10-09T13:14:21.927Z,1.6
2023-10-09T13:24:23.287Z,1.3
2023-10-09T13:34:24.362Z,1.2
2023-10-09T13:44:25.723Z,1.2
2023-10-09T13:54:26.976Z,1.3
2023-10-09T14:04:28.316Z,1
2023-10-09T14:14:29.785Z,1.1
2023-10-09T14:24:31.177Z,1.1
2023-10-09T14:34:32.695Z,1
2023-10-09T14:44:34.238Z,1.1
2023-10-09T14:54:35.652Z,1
2023-10-09T15:04:37.306Z,1.1
2023-10-09T15:14:38.938Z,1
2023-10-09T15:24:40.581Z,1.1
2023-10-09T15:34:42.398Z,1.2
2023-10-09T15:44:44.004Z,1
2023-10-09T15:54:45.794Z,1
2023-10-09T16:04:47.559Z,0.8
2023-10-09T16:14:49.462Z,0.7
2023-10-09T16:24:51.323Z,0.9
2023-10-09T16:34:53.184Z,0.9
2023-10-09T16:44:55.085Z,0.9
2023-10-09T16:54:57.024Z,0.7
2023-10-09T17:04:59.014Z,0.8
2023-10-09T17:15:00.917Z,0.8
2023-10-09T17:25:02.944Z,1
2023-10-09T17:35:04.998Z,1
2023-10-09T17:45:07.011Z,1.1
2023-10-09T17:55:09.179Z,0.8
2023-10-09T18:05:11.274Z,0.9
2023-10-09T18:15:13.238Z,0.9
2023-10-09T18:25:15.320Z,1
2023-10-09T18:35:17.463Z,0.9
2023-10-09T18:45:19.515Z,0.9
2023-10-09T18:55:21.371Z,0.9
2023-10-09T19:05:23.549Z,0.9
2023-10-09T19:15:25.524Z,0.9
2023-10-09T19:25:27.475Z,1
2023-10-09T19:35:29.477Z,0.9
2023-10-09T19:45:31.705Z,0.9
2023-10-09T19:55:33.519Z,0.8
2023-10-09T20:05:35.713Z,1
2023-10-09T20:15:37.692Z,0.6
2023-10-09T20:25:39.596Z,0.8
2023-10-09T20:35:41.678Z,0.8
2023-10-09T20:45:43.703Z,0.8
2023-10-09T20:55:45.792Z,0.8
2023-10-09T21:05:47.745Z,0.8
2023-10-09T21:15:49.643Z,1
2023-10-09T21:25:51.570Z,1
2023-10-09T21:35:53.392Z,1.3
2023-10-09T21:45:55.334Z,1.3
2023-10-09T21:55:57.214Z,1
2023-10-09T22:05:58.918Z,1.1
2023-10-09T22:16:03.374Z,1.2
2023-10-09T22:26:02.700Z,1.7
2023-10-09T22:36:04.076Z,1.6
2023-10-09T22:46:05.817Z,1.8
2023-10-09T22:56:07.486Z,1.6
2023-10-09T23:06:11.097Z,1.6
2023-10-09T23:16:11.157Z,1.3
2023-10-09T23:26:13.867Z,2.3
2023-10-09T23:36:14.829Z,2.4
2023-10-09T23:46:18.147Z,2.5
2023-10-09T23:56:18.337Z,2.3
